sensor_id;sensor_type;location;lat;lon;timestamp;pressure;altitude;pressure_sealevel;temperature;humidity
36692;BME280;22678;52.052;4.242;2023-02-14T00:00:11;103539.53;;;5.34;76.37
36692;BME280;22678;52.052;4.242;2023-02-14T00:02:36;103518.16;;;5.25;76.01
36692;BME280;22678;52.052;4.242;2023-02-14T00:05:02;103526.16;;;5.28;76.35
36692;BME280;22678;52.052;4.242;2023-02-14T00:07:27;103521.41;;;5.21;76.18
36692;BME280;22678;52.052;4.242;2023-02-14T00:09:52;103515.91;;;5.16;76.31
36692;BME280;22678;52.052;4.242;2023-02-14T00:12:18;103516.72;;;5.15;76.40
36692;BME280;22678;52.052;4.242;2023-02-14T00:14:43;103520.16;;;5.14;76.37
36692;BME280;22678;52.052;4.242;2023-02-14T00:17:27;103528.88;;;5.15;76.41
36692;BME280;22678;52.052;4.242;2023-02-14T00:19:52;103508.13;;;5.01;76.33
36692;BME280;22678;52.052;4.242;2023-02-14T00:22:17;103510.91;;;5.04;76.49
36692;BME280;22678;52.052;4.242;2023-02-14T00:24:43;103517.31;;;5.09;76.65
36692;BME280;22678;52.052;4.242;2023-02-14T00:27:08;103523.22;;;5.07;76.78
36692;BME280;22678;52.052;4.242;2023-02-14T00:29:33;103511.63;;;5.02;76.83
36692;BME280;22678;52.052;4.242;2023-02-14T00:31:59;103510.66;;;5.00;76.98
36692;BME280;22678;52.052;4.242;2023-02-14T00:34:25;103511.53;;;5.00;77.13
36692;BME280;22678;52.052;4.242;2023-02-14T00:36:51;103503.53;;;4.97;77.25
36692;BME280;22678;52.052;4.242;2023-02-14T00:39:17;103501.28;;;4.88;77.51
36692;BME280;22678;52.052;4.242;2023-02-14T00:41:43;103506.75;;;4.93;77.35
36692;BME280;22678;52.052;4.242;2023-02-14T00:44:09;103502.91;;;4.86;77.39
36692;BME280;22678;52.052;4.242;2023-02-14T00:46:35;103505.44;;;4.85;77.42
36692;BME280;22678;52.052;4.242;2023-02-14T00:49:01;103477.84;;;4.73;77.20
36692;BME280;22678;52.052;4.242;2023-02-14T00:51:26;103497.44;;;4.82;77.53
36692;BME280;22678;52.052;4.242;2023-02-14T00:53:52;103491.03;;;4.77;77.24
36692;BME280;22678;52.052;4.242;2023-02-14T00:56:19;103493.75;;;4.78;77.29
36692;BME280;22678;52.052;4.242;2023-02-14T00:58:45;103482.06;;;4.71;77.40
36692;BME280;22678;52.052;4.242;2023-02-14T01:01:11;103478.28;;;4.66;77.77
36692;BME280;22678;52.052;4.242;2023-02-14T01:03:36;103470.72;;;4.56;77.57
36692;BME280;22678;52.052;4.242;2023-02-14T01:06:02;103483.31;;;4.63;77.63
36692;BME280;22678;52.052;4.242;2023-02-14T01:08:28;103470.13;;;4.60;77.81
36692;BME280;22678;52.052;4.242;2023-02-14T01:10:53;103465.97;;;4.49;77.68
36692;BME280;22678;52.052;4.242;2023-02-14T01:13:19;103476.97;;;4.58;77.84
36692;BME280;22678;52.052;4.242;2023-02-14T01:15:47;103475.06;;;4.55;78.03
36692;BME280;22678;52.052;4.242;2023-02-14T01:18:15;103488.19;;;4.57;77.97
36692;BME280;22678;52.052;4.242;2023-02-14T01:20:40;103479.91;;;4.49;77.98
36692;BME280;22678;52.052;4.242;2023-02-14T01:23:06;103458.31;;;4.37;78.04
36692;BME280;22678;52.052;4.242;2023-02-14T01:25:32;103471.63;;;4.42;78.19
36692;BME280;22678;52.052;4.242;2023-02-14T01:27:57;103490.88;;;4.44;78.02
36692;BME280;22678;52.052;4.242;2023-02-14T01:30:23;103472.19;;;4.36;78.30
36692;BME280;22678;52.052;4.242;2023-02-14T01:32:49;103484.56;;;4.40;78.57
36692;BME280;22678;52.052;4.242;2023-02-14T01:35:15;103462.81;;;4.25;78.44
36692;BME280;22678;52.052;4.242;2023-02-14T01:37:40;103481.31;;;4.29;78.56
36692;BME280;22678;52.052;4.242;2023-02-14T01:40:15;103478.81;;;4.31;78.58
36692;BME280;22678;52.052;4.242;2023-02-14T01:42:41;103467.84;;;4.21;78.63
36692;BME280;22678;52.052;4.242;2023-02-14T01:45:14;103473.94;;;4.22;78.76
36692;BME280;22678;52.052;4.242;2023-02-14T01:47:42;103481.75;;;4.22;78.48
36692;BME280;22678;52.052;4.242;2023-02-14T01:50:17;103486.16;;;4.23;78.76
36692;BME280;22678;52.052;4.242;2023-02-14T01:52:49;103497.28;;;4.20;78.73
36692;BME280;22678;52.052;4.242;2023-02-14T01:55:19;103480.09;;;4.09;78.57
36692;BME280;22678;52.052;4.242;2023-02-14T01:57:52;103487.22;;;4.12;78.91
36692;BME280;22678;52.052;4.242;2023-02-14T02:00:20;103471.22;;;4.06;78.81
36692;BME280;22678;52.052;4.242;2023-02-14T02:03:05;103483.63;;;4.10;79.19
36692;BME280;22678;52.052;4.242;2023-02-14T02:05:32;103475.34;;;4.02;78.84
36692;BME280;22678;52.052;4.242;2023-02-14T02:07:59;103475.34;;;4.02;78.87
36692;BME280;22678;52.052;4.242;2023-02-14T02:10:24;103484.16;;;4.04;78.78
36692;BME280;22678;52.052;4.242;2023-02-14T02:12:51;103479.66;;;4.01;79.16
36692;BME280;22678;52.052;4.242;2023-02-14T02:15:17;103482.06;;;3.98;78.99
36692;BME280;22678;52.052;4.242;2023-02-14T02:26:02;103480.72;;;3.90;79.23
36692;BME280;22678;52.052;4.242;2023-02-14T02:34:04;103467.19;;;3.82;79.21
36692;BME280;22678;52.052;4.242;2023-02-14T02:40:05;103462.31;;;3.74;79.60
36692;BME280;22678;52.052;4.242;2023-02-14T02:48:14;103454.75;;;3.63;79.78
36692;BME280;22678;52.052;4.242;2023-02-14T02:50:46;103444.34;;;3.63;79.73
36692;BME280;22678;52.052;4.242;2023-02-14T02:53:40;103460.97;;;3.65;80.24
36692;BME280;22678;52.052;4.242;2023-02-14T02:56:35;103466.97;;;3.64;79.89
36692;BME280;22678;52.052;4.242;2023-02-14T02:59:21;103453.38;;;3.55;80.03
36692;BME280;22678;52.052;4.242;2023-02-14T03:01:51;103460.47;;;3.58;80.07
36692;BME280;22678;52.052;4.242;2023-02-14T03:04:19;103454.97;;;3.53;80.14
36692;BME280;22678;52.052;4.242;2023-02-14T03:07:05;103446.00;;;3.48;80.07
36692;BME280;22678;52.052;4.242;2023-02-14T03:09:56;103457.38;;;3.50;80.43
36692;BME280;22678;52.052;4.242;2023-02-14T03:18:06;103458.81;;;3.45;80.71
36692;BME280;22678;52.052;4.242;2023-02-14T03:26:48;103450.63;;;3.39;80.53
36692;BME280;22678;52.052;4.242;2023-02-14T03:29:26;103452.31;;;3.38;80.85
36692;BME280;22678;52.052;4.242;2023-02-14T03:32:12;103449.59;;;3.37;80.86
36692;BME280;22678;52.052;4.242;2023-02-14T03:34:50;103444.03;;;3.30;80.96
36692;BME280;22678;52.052;4.242;2023-02-14T03:38:13;103447.63;;;3.32;80.92
36692;BME280;22678;52.052;4.242;2023-02-14T03:40:24;103448.34;;;3.30;81.01
36692;BME280;22678;52.052;4.242;2023-02-14T03:42:54;103438.25;;;3.21;81.17
36692;BME280;22678;52.052;4.242;2023-02-14T03:45:31;103442.03;;;3.26;81.24
36692;BME280;22678;52.052;4.242;2023-02-14T03:48:02;103439.84;;;3.19;81.05
36692;BME280;22678;52.052;4.242;2023-02-14T03:50:30;103443.16;;;3.17;81.27
36692;BME280;22678;52.052;4.242;2023-02-14T03:52:57;103427.25;;;3.12;81.32
36692;BME280;22678;52.052;4.242;2023-02-14T03:55:29;103442.44;;;3.19;81.13
36692;BME280;22678;52.052;4.242;2023-02-14T03:58:02;103446.75;;;3.19;81.25
36692;BME280;22678;52.052;4.242;2023-02-14T04:00:31;103437.63;;;3.12;81.48
36692;BME280;22678;52.052;4.242;2023-02-14T04:03:05;103445.63;;;3.15;81.64
36692;BME280;22678;52.052;4.242;2023-02-14T04:05:33;103434.84;;;3.09;82.03
36692;BME280;22678;52.052;4.242;2023-02-14T04:07:59;103435.03;;;3.12;81.69
36692;BME280;22678;52.052;4.242;2023-02-14T04:10:25;103448.22;;;3.15;82.10
36692;BME280;22678;52.052;4.242;2023-02-14T04:12:51;103436.16;;;3.15;82.32
36692;BME280;22678;52.052;4.242;2023-02-14T04:15:17;103438.56;;;3.12;82.06
36692;BME280;22678;52.052;4.242;2023-02-14T04:17:42;103439.94;;;3.07;82.53
36692;BME280;22678;52.052;4.242;2023-02-14T04:20:27;103443.75;;;3.12;82.22
36692;BME280;22678;52.052;4.242;2023-02-14T04:22:52;103439.06;;;3.07;82.81
36692;BME280;22678;52.052;4.242;2023-02-14T04:25:19;103440.13;;;3.10;82.41
36692;BME280;22678;52.052;4.242;2023-02-14T04:27:45;103438.19;;;3.06;82.82
36692;BME280;22678;52.052;4.242;2023-02-14T04:30:11;103428.28;;;3.01;82.73
36692;BME280;22678;52.052;4.242;2023-02-14T04:32:38;103427.16;;;2.97;82.90
36692;BME280;22678;52.052;4.242;2023-02-14T04:35:04;103429.84;;;2.98;82.99
36692;BME280;22678;52.052;4.242;2023-02-14T04:37:30;103440.78;;;3.06;83.30
36692;BME280;22678;52.052;4.242;2023-02-14T04:39:55;103420.47;;;3.01;83.40
36692;BME280;22678;52.052;4.242;2023-02-14T04:42:20;103433.84;;;3.07;83.76
36692;BME280;22678;52.052;4.242;2023-02-14T04:44:46;103432.06;;;3.06;83.71
36692;BME280;22678;52.052;4.242;2023-02-14T04:47:11;103443.25;;;3.05;83.46
36692;BME280;22678;52.052;4.242;2023-02-14T04:49:36;103443.03;;;3.02;84.13
36692;BME280;22678;52.052;4.242;2023-02-14T04:52:02;103449.06;;;3.01;83.93
36692;BME280;22678;52.052;4.242;2023-02-14T04:54:28;103423.69;;;2.83;83.91
36692;BME280;22678;52.052;4.242;2023-02-14T04:56:53;103442.66;;;2.95;83.85
36692;BME280;22678;52.052;4.242;2023-02-14T04:59:18;103430.88;;;2.87;83.68
36692;BME280;22678;52.052;4.242;2023-02-14T05:01:44;103436.97;;;2.88;84.03
36692;BME280;22678;52.052;4.242;2023-02-14T05:04:10;103432.06;;;2.79;84.14
36692;BME280;22678;52.052;4.242;2023-02-14T05:06:35;103431.28;;;2.80;84.37
36692;BME280;22678;52.052;4.242;2023-02-14T05:09:01;103432.06;;;2.79;84.37
36692;BME280;22678;52.052;4.242;2023-02-14T05:11:28;103435.66;;;2.81;84.56
36692;BME280;22678;52.052;4.242;2023-02-14T05:13:54;103435.56;;;2.79;84.47
36692;BME280;22678;52.052;4.242;2023-02-14T05:16:19;103423.88;;;2.73;84.60
36692;BME280;22678;52.052;4.242;2023-02-14T05:18:45;103418.09;;;2.63;84.50
36692;BME280;22678;52.052;4.242;2023-02-14T05:21:11;103429.66;;;2.69;84.40
36692;BME280;22678;52.052;4.242;2023-02-14T05:23:36;103425.88;;;2.63;84.44
36692;BME280;22678;52.052;4.242;2023-02-14T05:26:02;103434.66;;;2.66;84.74
36692;BME280;22678;52.052;4.242;2023-02-14T05:28:28;103417.66;;;2.57;84.65
36692;BME280;22678;52.052;4.242;2023-02-14T05:30:54;103422.06;;;2.58;84.80
36692;BME280;22678;52.052;4.242;2023-02-14T05:33:21;103421.88;;;2.55;84.59
36692;BME280;22678;52.052;4.242;2023-02-14T05:35:46;103433.44;;;2.60;85.09
36692;BME280;22678;52.052;4.242;2023-02-14T05:38:11;103422.06;;;2.58;85.12
36692;BME280;22678;52.052;4.242;2023-02-14T05:40:38;103428.66;;;2.53;84.98
36692;BME280;22678;52.052;4.242;2023-02-14T05:43:03;103414.47;;;2.48;85.17
36692;BME280;22678;52.052;4.242;2023-02-14T05:45:29;103422.16;;;2.47;84.97
36692;BME280;22678;52.052;4.242;2023-02-14T05:47:54;103422.34;;;2.50;85.09
36692;BME280;22678;52.052;4.242;2023-02-14T05:50:19;103418.75;;;2.48;85.32
36692;BME280;22678;52.052;4.242;2023-02-14T05:52:45;103420.44;;;2.47;85.30
36692;BME280;22678;52.052;4.242;2023-02-14T05:55:10;103416.66;;;2.42;85.32
36692;BME280;22678;52.052;4.242;2023-02-14T05:57:35;103415.63;;;2.40;85.20
36692;BME280;22678;52.052;4.242;2023-02-14T06:00:02;103425.13;;;2.39;85.56
36692;BME280;22678;52.052;4.242;2023-02-14T06:02:29;103432.22;;;2.42;85.23
36692;BME280;22678;52.052;4.242;2023-02-14T06:04:54;103425.81;;;2.37;85.29
36692;BME280;22678;52.052;4.242;2023-02-14T06:07:20;103415.22;;;2.34;85.52
36692;BME280;22678;52.052;4.242;2023-02-14T06:09:45;103416.06;;;2.33;85.11
36692;BME280;22678;52.052;4.242;2023-02-14T06:12:10;103419.53;;;2.33;85.77
36692;BME280;22678;52.052;4.242;2023-02-14T06:14:36;103413.94;;;2.27;85.77
36692;BME280;22678;52.052;4.242;2023-02-14T06:17:01;103415.72;;;2.28;85.53
36692;BME280;22678;52.052;4.242;2023-02-14T06:19:26;103408.09;;;2.18;85.49
36692;BME280;22678;52.052;4.242;2023-02-14T06:21:52;103420.69;;;2.25;85.65
36692;BME280;22678;52.052;4.242;2023-02-14T06:24:17;103431.81;;;2.22;86.12
36692;BME280;22678;52.052;4.242;2023-02-14T06:26:42;103407.22;;;2.17;85.92
36692;BME280;22678;52.052;4.242;2023-02-14T06:29:08;103406.72;;;2.23;86.54
36692;BME280;22678;52.052;4.242;2023-02-14T06:31:33;103417.44;;;2.41;86.77
36692;BME280;22678;52.052;4.242;2023-02-14T06:33:58;103439.75;;;2.51;86.54
36692;BME280;22678;52.052;4.242;2023-02-14T06:36:24;103440.44;;;2.48;86.73
36692;BME280;22678;52.052;4.242;2023-02-14T06:38:50;103422.63;;;2.41;86.72
36692;BME280;22678;52.052;4.242;2023-02-14T06:41:15;103421.34;;;2.34;86.83
36692;BME280;22678;52.052;4.242;2023-02-14T06:43:45;103437.22;;;2.39;86.80
36692;BME280;22678;52.052;4.242;2023-02-14T06:46:13;103443.09;;;2.36;86.69
36692;BME280;22678;52.052;4.242;2023-02-14T06:48:39;103423.09;;;2.22;86.83
36692;BME280;22678;52.052;4.242;2023-02-14T06:51:04;103441.00;;;2.31;87.11
36692;BME280;22678;52.052;4.242;2023-02-14T06:53:29;103435.75;;;2.17;87.11
36692;BME280;22678;52.052;4.242;2023-02-14T06:55:55;103444.88;;;2.24;87.17
36692;BME280;22678;52.052;4.242;2023-02-14T06:58:20;103449.16;;;2.23;87.23
36692;BME280;22678;52.052;4.242;2023-02-14T07:00:46;103434.88;;;2.17;87.47
36692;BME280;22678;52.052;4.242;2023-02-14T07:03:12;103434.06;;;2.18;87.64
36692;BME280;22678;52.052;4.242;2023-02-14T07:05:37;103446.56;;;2.23;87.57
36692;BME280;22678;52.052;4.242;2023-02-14T07:08:03;103432.38;;;2.18;87.70
36692;BME280;22678;52.052;4.242;2023-02-14T07:10:28;103436.44;;;2.15;87.84
36692;BME280;22678;52.052;4.242;2023-02-14T07:12:53;103450.75;;;2.21;87.90
36692;BME280;22678;52.052;4.242;2023-02-14T07:15:19;103424.47;;;2.03;87.62
36692;BME280;22678;52.052;4.242;2023-02-14T07:17:44;103451.44;;;2.19;88.11
36692;BME280;22678;52.052;4.242;2023-02-14T07:20:11;103446.03;;;2.16;87.79
36692;BME280;22678;52.052;4.242;2023-02-14T07:22:37;103449.31;;;2.13;88.17
36692;BME280;22678;52.052;4.242;2023-02-14T07:25:03;103443.34;;;2.14;87.87
36692;BME280;22678;52.052;4.242;2023-02-14T07:27:29;103429.84;;;2.06;88.31
36692;BME280;22678;52.052;4.242;2023-02-14T07:29:54;103450.34;;;2.15;88.04
36692;BME280;22678;52.052;4.242;2023-02-14T07:32:19;103446.94;;;2.16;88.27
36692;BME280;22678;52.052;4.242;2023-02-14T07:34:45;103413.63;;;1.97;88.55
36692;BME280;22678;52.052;4.242;2023-02-14T07:37:10;103445.84;;;2.13;88.38
36692;BME280;22678;52.052;4.242;2023-02-14T07:39:35;103427.38;;;2.08;88.42
36692;BME280;22678;52.052;4.242;2023-02-14T07:42:01;103440.97;;;2.17;88.48
36692;BME280;22678;52.052;4.242;2023-02-14T07:44:26;103431.16;;;2.13;88.52
36692;BME280;22678;52.052;4.242;2023-02-14T07:46:51;103435.47;;;2.13;88.81
36692;BME280;22678;52.052;4.242;2023-02-14T07:49:17;103429.38;;;2.12;88.82
36692;BME280;22678;52.052;4.242;2023-02-14T07:51:42;103430.94;;;2.10;88.78
36692;BME280;22678;52.052;4.242;2023-02-14T07:54:08;103434.97;;;2.18;88.62
36692;BME280;22678;52.052;4.242;2023-02-14T07:56:33;103433.38;;;2.20;88.81
36692;BME280;22678;52.052;4.242;2023-02-14T07:58:59;103437.41;;;2.28;89.20
36692;BME280;22678;52.052;4.242;2023-02-14T08:01:24;103421.81;;;2.28;89.16
36692;BME280;22678;52.052;4.242;2023-02-14T08:03:49;103451.59;;;2.47;89.42
36692;BME280;22678;52.052;4.242;2023-02-14T08:06:17;103447.34;;;2.61;89.82
36692;BME280;22678;52.052;4.242;2023-02-14T08:08:43;103435.06;;;2.72;89.79
36692;BME280;22678;52.052;4.242;2023-02-14T08:11:09;103439.66;;;2.89;90.38
36692;BME280;22678;52.052;4.242;2023-02-14T08:13:34;103437.13;;;3.18;91.58
36692;BME280;22678;52.052;4.242;2023-02-14T08:16:00;103437.03;;;3.58;91.21
36692;BME280;22678;52.052;4.242;2023-02-14T08:18:29;103426.41;;;3.96;90.76
36692;BME280;22678;52.052;4.242;2023-02-14T08:20:54;103426.69;;;4.16;89.94
36692;BME280;22678;52.052;4.242;2023-02-14T08:23:20;103428.59;;;4.18;89.82
36692;BME280;22678;52.052;4.242;2023-02-14T08:25:47;103429.03;;;4.26;90.04
36692;BME280;22678;52.052;4.242;2023-02-14T08:28:13;103433.44;;;4.27;90.54
36692;BME280;22678;52.052;4.242;2023-02-14T08:30:39;103441.72;;;4.35;90.75
36692;BME280;22678;52.052;4.242;2023-02-14T08:33:05;103429.56;;;4.35;91.08
36692;BME280;22678;52.052;4.242;2023-02-14T08:35:31;103422.94;;;4.41;91.19
36692;BME280;22678;52.052;4.242;2023-02-14T08:37:56;103441.28;;;4.57;91.67
36692;BME280;22678;52.052;4.242;2023-02-14T08:40:21;103416.84;;;4.55;92.12
36692;BME280;22678;52.052;4.242;2023-02-14T08:42:47;103429.03;;;4.71;92.10
36692;BME280;22678;52.052;4.242;2023-02-14T08:45:12;103432.25;;;4.82;92.52
36692;BME280;22678;52.052;4.242;2023-02-14T08:47:38;103426.59;;;4.89;92.57
36692;BME280;22678;52.052;4.242;2023-02-14T08:50:06;103432.03;;;5.08;92.68
36692;BME280;22678;52.052;4.242;2023-02-14T08:52:35;103410.34;;;5.09;92.47
36692;BME280;22678;52.052;4.242;2023-02-14T08:55:00;103425.13;;;5.25;92.25
36692;BME280;22678;52.052;4.242;2023-02-14T08:57:27;103429.47;;;5.41;92.67
36692;BME280;22678;52.052;4.242;2023-02-14T08:59:52;103427.06;;;5.61;92.99
36692;BME280;22678;52.052;4.242;2023-02-14T09:02:18;103434.09;;;5.95;92.52
36692;BME280;22678;52.052;4.242;2023-02-14T09:04:43;103418.16;;;6.23;91.34
36692;BME280;22678;52.052;4.242;2023-02-14T09:07:11;103427.47;;;6.53;90.53
36692;BME280;22678;52.052;4.242;2023-02-14T09:09:36;103415.34;;;6.55;90.02
36692;BME280;22678;52.052;4.242;2023-02-14T09:12:03;103419.78;;;6.56;90.15
36692;BME280;22678;52.052;4.242;2023-02-14T09:14:29;103427.91;;;6.62;90.31
36692;BME280;22678;52.052;4.242;2023-02-14T09:16:54;103431.53;;;6.82;90.70
36692;BME280;22678;52.052;4.242;2023-02-14T09:19:20;103422.38;;;7.10;89.63
36692;BME280;22678;52.052;4.242;2023-02-14T09:21:45;103411.16;;;7.12;88.83
36692;BME280;22678;52.052;4.242;2023-02-14T09:24:10;103405.78;;;7.09;88.80
36692;BME280;22678;52.052;4.242;2023-02-14T09:26:36;103412.94;;;7.13;89.18
36692;BME280;22678;52.052;4.242;2023-02-14T09:29:04;103421.16;;;7.21;88.94
36692;BME280;22678;52.052;4.242;2023-02-14T09:31:30;103404.44;;;7.17;89.12
36692;BME280;22678;52.052;4.242;2023-02-14T09:33:55;103424.28;;;7.32;89.43
36692;BME280;22678;52.052;4.242;2023-02-14T09:36:21;103414.09;;;7.38;89.02
36692;BME280;22678;52.052;4.242;2023-02-14T09:39:04;103420.03;;;7.53;88.92
36692;BME280;22678;52.052;4.242;2023-02-14T09:44:07;103409.53;;;7.71;88.23
36692;BME280;22678;52.052;4.242;2023-02-14T09:46:49;103426.72;;;7.86;88.14
36692;BME280;22678;52.052;4.242;2023-02-14T09:49:17;103421.97;;;7.97;87.99
36692;BME280;22678;52.052;4.242;2023-02-14T09:51:49;103406.44;;;8.01;87.21
36692;BME280;22678;52.052;4.242;2023-02-14T09:54:19;103405.19;;;8.13;86.74
36692;BME280;22678;52.052;4.242;2023-02-14T09:56:53;103419.78;;;8.27;86.35
36692;BME280;22678;52.052;4.242;2023-02-14T09:59:23;103424.75;;;8.42;85.86
36692;BME280;22678;52.052;4.242;2023-02-14T10:01:57;103419.25;;;8.55;85.40
36692;BME280;22678;52.052;4.242;2023-02-14T10:04:33;103410.94;;;8.66;85.03
36692;BME280;22678;52.052;4.242;2023-02-14T10:13:28;103419.69;;;9.10;83.38
36692;BME280;22678;52.052;4.242;2023-02-14T10:15:24;103408.59;;;9.17;82.78
36692;BME280;22678;52.052;4.242;2023-02-14T10:18:10;103401.91;;;9.25;82.41
36692;BME280;22678;52.052;4.242;2023-02-14T10:20:46;103407.50;;;9.35;81.46
36692;BME280;22678;52.052;4.242;2023-02-14T10:23:27;103404.56;;;9.50;81.62
36692;BME280;22678;52.052;4.242;2023-02-14T10:26:21;103407.81;;;9.67;81.15
36692;BME280;22678;52.052;4.242;2023-02-14T10:28:49;103391.31;;;9.71;79.65
36692;BME280;22678;52.052;4.242;2023-02-14T10:31:21;103409.31;;;9.84;79.15
36692;BME280;22678;52.052;4.242;2023-02-14T10:33:59;103408.72;;;9.91;78.33
36692;BME280;22678;52.052;4.242;2023-02-14T10:36:33;103391.34;;;9.96;77.63
36692;BME280;22678;52.052;4.242;2023-02-14T10:39:40;103390.72;;;10.04;77.36
36692;BME280;22678;52.052;4.242;2023-02-14T10:44:57;103392.84;;;10.14;75.41
36692;BME280;22678;52.052;4.242;2023-02-14T10:50:12;103392.69;;;10.33;75.35
36692;BME280;22678;52.052;4.242;2023-02-14T10:52:51;103394.69;;;10.42;74.05
36692;BME280;22678;52.052;4.242;2023-02-14T10:55:31;103391.59;;;10.54;74.23
36692;BME280;22678;52.052;4.242;2023-02-14T10:58:01;103387.50;;;10.64;74.00
36692;BME280;22678;52.052;4.242;2023-02-14T11:00:36;103373.75;;;10.73;73.68
36692;BME280;22678;52.052;4.242;2023-02-14T11:03:06;103378.75;;;10.92;72.84
36692;BME280;22678;52.052;4.242;2023-02-14T11:05:59;103385.25;;;11.03;72.76
36692;BME280;22678;52.052;4.242;2023-02-14T11:08:31;103375.56;;;11.02;71.81
36692;BME280;22678;52.052;4.242;2023-02-14T11:16:48;103369.34;;;11.29;70.69
36692;BME280;22678;52.052;4.242;2023-02-14T11:19:28;103369.59;;;11.38;70.60
36692;BME280;22678;52.052;4.242;2023-02-14T11:21:57;103358.44;;;11.47;70.48
36692;BME280;22678;52.052;4.242;2023-02-14T11:24:31;103358.78;;;11.60;69.96
36692;BME280;22678;52.052;4.242;2023-02-14T11:29:34;103340.28;;;11.58;68.64
36692;BME280;22678;52.052;4.242;2023-02-14T11:32:13;103355.69;;;11.76;69.15
36692;BME280;22678;52.052;4.242;2023-02-14T11:34:43;103355.06;;;11.85;68.60
36692;BME280;22678;52.052;4.242;2023-02-14T11:37:41;103350.16;;;11.97;68.56
36692;BME280;22678;52.052;4.242;2023-02-14T11:40:35;103347.69;;;12.03;67.74
36692;BME280;22678;52.052;4.242;2023-02-14T11:43:18;103334.50;;;12.03;67.48
36692;BME280;22678;52.052;4.242;2023-02-14T11:45:46;103332.91;;;12.12;66.98
36692;BME280;22678;52.052;4.242;2023-02-14T11:56:00;103315.94;;;12.35;66.80
36692;BME280;22678;52.052;4.242;2023-02-14T11:58:33;103322.31;;;12.45;66.57
36692;BME280;22678;52.052;4.242;2023-02-14T12:01:00;103318.81;;;12.46;66.29
36692;BME280;22678;52.052;4.242;2023-02-14T12:03:34;103311.78;;;12.47;66.51
36692;BME280;22678;52.052;4.242;2023-02-14T12:06:02;103303.94;;;12.50;66.04
36692;BME280;22678;52.052;4.242;2023-02-14T12:08:30;103309.44;;;12.59;65.71
36692;BME280;22678;52.052;4.242;2023-02-14T12:11:04;103306.69;;;12.54;65.59
36692;BME280;22678;52.052;4.242;2023-02-14T12:13:31;103296.09;;;12.53;65.20
36692;BME280;22678;52.052;4.242;2023-02-14T12:15:57;103303.41;;;12.65;65.40
36692;BME280;22678;52.052;4.242;2023-02-14T12:26:41;103284.63;;;12.92;64.18
36692;BME280;22678;52.052;4.242;2023-02-14T12:29:12;103287.53;;;13.04;63.75
36692;BME280;22678;52.052;4.242;2023-02-14T12:31:40;103271.69;;;13.04;62.93
36692;BME280;22678;52.052;4.242;2023-02-14T12:34:09;103281.53;;;13.13;62.60
36692;BME280;22678;52.052;4.242;2023-02-14T12:37:12;103270.22;;;13.19;62.64
36692;BME280;22678;52.052;4.242;2023-02-14T12:40:04;103276.38;;;13.18;62.01
36692;BME280;22678;52.052;4.242;2023-02-14T12:42:42;103272.19;;;13.30;61.76
36692;BME280;22678;52.052;4.242;2023-02-14T12:55:57;103265.56;;;13.51;60.81
36692;BME280;22678;52.052;4.242;2023-02-14T13:01:41;103255.31;;;13.68;60.90
36692;BME280;22678;52.052;4.242;2023-02-14T13:05:18;103255.47;;;13.79;60.61
36692;BME280;22678;52.052;4.242;2023-02-14T13:07:37;103249.41;;;13.84;60.48
36692;BME280;22678;52.052;4.242;2023-02-14T13:10:21;103242.38;;;13.87;60.34
36692;BME280;22678;52.052;4.242;2023-02-14T13:21:00;103241.88;;;14.09;58.47
36692;BME280;22678;52.052;4.242;2023-02-14T13:23:31;103230.34;;;14.07;57.43
36692;BME280;22678;52.052;4.242;2023-02-14T13:26:03;103241.91;;;14.11;57.26
36692;BME280;22678;52.052;4.242;2023-02-14T13:28:31;103239.38;;;14.18;56.99
36692;BME280;22678;52.052;4.242;2023-02-14T13:30:57;103243.78;;;14.19;57.44
36692;BME280;22678;52.052;4.242;2023-02-14T13:33:24;103232.41;;;14.25;57.48
36692;BME280;22678;52.052;4.242;2023-02-14T13:35:53;103226.38;;;14.34;56.13
36692;BME280;22678;52.052;4.242;2023-02-14T13:38:19;103222.81;;;14.33;55.21
36692;BME280;22678;52.052;4.242;2023-02-14T13:40:46;103228.03;;;14.29;55.10
36692;BME280;22678;52.052;4.242;2023-02-14T13:43:11;103218.22;;;14.20;55.00
36692;BME280;22678;52.052;4.242;2023-02-14T13:51:05;103218.28;;;14.25;56.10
36692;BME280;22678;52.052;4.242;2023-02-14T13:53:44;103208.50;;;14.20;56.00
36692;BME280;22678;52.052;4.242;2023-02-14T13:58:49;103213.13;;;14.34;56.33
36692;BME280;22678;52.052;4.242;2023-02-14T14:04:43;103210.56;;;14.40;55.67
36692;BME280;22678;52.052;4.242;2023-02-14T14:07:15;103198.13;;;14.34;56.12
36692;BME280;22678;52.052;4.242;2023-02-14T14:17:45;103207.25;;;14.57;57.14
36692;BME280;22678;52.052;4.242;2023-02-14T14:22:53;103191.16;;;14.41;57.13
36692;BME280;22678;52.052;4.242;2023-02-14T14:27:59;103199.03;;;14.36;57.24
36692;BME280;22678;52.052;4.242;2023-02-14T14:30:27;103198.94;;;14.29;57.82
36692;BME280;22678;52.052;4.242;2023-02-14T14:33:11;103194.38;;;14.18;58.27
36692;BME280;22678;52.052;4.242;2023-02-14T14:35:36;103194.34;;;14.15;58.26
36692;BME280;22678;52.052;4.242;2023-02-14T14:38:02;103210.28;;;14.22;58.56
36692;BME280;22678;52.052;4.242;2023-02-14T14:40:36;103191.66;;;14.14;58.65
36692;BME280;22678;52.052;4.242;2023-02-14T14:43:14;103135.50;;;13.72;58.61
36692;BME280;22678;52.052;4.242;2023-02-14T14:45:44;103191.44;;;14.00;58.56
36692;BME280;22678;52.052;4.242;2023-02-14T14:48:13;103183.25;;;13.81;58.90
36692;BME280;22678;52.052;4.242;2023-02-14T14:50:43;103184.22;;;13.88;59.29
36692;BME280;22678;52.052;4.242;2023-02-14T14:53:20;103186.78;;;13.83;59.44
36692;BME280;22678;52.052;4.242;2023-02-14T14:55:47;103182.22;;;13.73;59.67
36692;BME280;22678;52.052;4.242;2023-02-14T14:58:30;103199.09;;;13.80;59.84
36692;BME280;22678;52.052;4.242;2023-02-14T15:00:56;103177.75;;;13.69;60.00
36692;BME280;22678;52.052;4.242;2023-02-14T15:03:24;103204.44;;;13.84;60.17
36692;BME280;22678;52.052;4.242;2023-02-14T15:06:02;103193.00;;;13.84;60.23
36692;BME280;22678;52.052;4.242;2023-02-14T15:08:29;103192.03;;;13.80;60.22